Chornomors'Ke, Ukraine
Current Conditions -  °F | °C
As of 12:00 PM on Sunday 26 Oct 2014 (Local Time) from URFF Reporting Station
Clear Clear  
Wind Chill: 30°   Ceiling: Unl
Heat Index: 41°   Visibility: 6mi
Dew Point: 27°   Wind: 31mph
Humidity: 57%   Direction: 70°ENE
Pressure: 30.27"   Gusts: 45mph
Location:  45.52°N, 32.7°E
Report Text: URFF 260900Z 07014G20MPS CAVOK 05/M03 Q1025 01010065 NOSIG
Loading
Personal Weather Stations






























Interactive Weather Map
Tropical Storm Tracking
New forecast layout! Learn more

10-Day Weather Forecast

Advertisements
Track Severe Weather on mobile